Time;durP1;ratioP1;P1;durP2;ratioP2;P2;SDS_P1;SDS_P2;PMS_P1;PMS_P2;Temp;Humidity;BMP_temperature;BMP_pressure;BME280_temperature;BME280_humidity;BME280_pressure;Samples;Min_cycle;Max_cycle;Signal;HPM_P1;HPM_P2
2021/05/29 00:00:04;;;;;;;;;;;19.90;62.80;;;;;;5053879;28;1094;-73
2021/05/29 00:02:30;;;;;;;;;;;19.90;62.80;;;;;;5054188;28;1959;-73
2021/05/29 00:04:55;;;;;;;;;;;19.90;62.80;;;;;;5053272;28;1067;-72
2021/05/29 00:07:21;;;;;;;;;;;19.90;62.80;;;;;;5053834;28;1247;-72
2021/05/29 00:09:46;;;;;;;;;;;19.90;62.80;;;;;;5054239;28;1123;-72
2021/05/29 00:12:12;;;;;;;;;;;19.90;62.90;;;;;;5053856;28;920;-72
2021/05/29 00:14:38;;;;;;;;;;;19.90;62.90;;;;;;5052896;28;1179;-74
2021/05/29 00:17:04;;;;;;;;;;;19.90;62.90;;;;;;5048848;28;1166;-72
2021/05/29 00:19:29;;;;;;;;;;;19.90;62.90;;;;;;5053800;28;1138;-72
2021/05/29 00:21:55;;;;;;;;;;;19.90;62.90;;;;;;5046870;28;1907;-73
2021/05/29 00:24:20;;;;;;;;;;;19.90;62.90;;;;;;5053731;28;1172;-74
2021/05/29 00:26:46;;;;;;;;;;;19.90;62.90;;;;;;5053215;28;1686;-73
2021/05/29 00:29:11;;;;;;;;;;;19.90;62.90;;;;;;5052630;28;1079;-74
2021/05/29 00:31:36;;;;;;;;;;;19.80;62.90;;;;;;5052695;28;1119;-73
2021/05/29 00:34:02;;;;;;;;;;;19.90;63.00;;;;;;5053146;28;1254;-72
2021/05/29 00:36:27;;;;;;;;;;;19.80;63.70;;;;;;5053048;28;1392;-73
2021/05/29 00:38:53;;;;;;;;;;;19.80;62.90;;;;;;5053349;28;1114;-73
2021/05/29 00:41:18;;;;;;;;;;;19.80;62.90;;;;;;5053552;28;1914;-72
2021/05/29 00:43:44;;;;;;;;;;;19.80;62.90;;;;;;5052010;28;1199;-73
2021/05/29 00:46:10;;;;;;;;;;;19.80;62.90;;;;;;5052545;28;1249;-73
2021/05/29 00:48:35;;;;;;;;;;;19.80;62.90;;;;;;5052353;28;1154;-73
2021/05/29 00:51:02;;;;;;;;;;;19.80;63.00;;;;;;5052487;28;1082;-74
2021/05/29 00:53:27;;;;;;;;;;;19.80;63.00;;;;;;5051460;28;1168;-75
2021/05/29 00:55:53;;;;;;;;;;;19.80;63.00;;;;;;5052419;28;1351;-73
2021/05/29 00:58:19;;;;;;;;;;;19.80;63.00;;;;;;5051903;28;1100;-73
2021/05/29 01:00:45;;;;;;;;;;;19.80;63.00;;;;;;5052321;28;1100;-73
2021/05/29 01:03:10;;;;;;;;;;;19.80;63.00;;;;;;5052874;28;2003;-72
2021/05/29 01:05:36;;;;;;;;;;;19.80;63.00;;;;;;5052206;28;1233;-73
2021/05/29 01:08:01;;;;;;;;;;;19.80;63.10;;;;;;5052187;28;1146;-72
2021/05/29 01:10:27;;;;;;;;;;;19.80;63.00;;;;;;5053193;28;1126;-73
2021/05/29 01:12:53;;;;;;;;;;;19.80;63.00;;;;;;5052676;28;1225;-73
2021/05/29 01:15:19;;;;;;;;;;;19.80;63.10;;;;;;5050778;28;1322;-73
2021/05/29 01:17:44;;;;;;;;;;;19.80;63.10;;;;;;5047715;28;1162;-73
2021/05/29 01:20:13;;;;;;;;;;;19.80;63.10;;;;;;5053294;28;1086;-73
2021/05/29 01:22:43;;;;;;;;;;;19.80;63.10;;;;;;5051819;28;1958;-73
2021/05/29 01:25:18;;;;;;;;;;;19.80;63.10;;;;;;5052471;28;1385;-73
2021/05/29 01:27:44;;;;;;;;;;;19.80;63.10;;;;;;5052965;28;1149;-73
2021/05/29 01:30:10;;;;;;;;;;;19.70;63.10;;;;;;5052587;28;940;-73
2021/05/29 01:32:36;;;;;;;;;;;19.80;63.10;;;;;;5051525;28;1138;-73
2021/05/29 01:35:06;;;;;;;;;;;19.80;63.10;;;;;;5052642;28;1087;-73
2021/05/29 01:37:31;;;;;;;;;;;19.80;63.10;;;;;;5052496;28;1071;-73
2021/05/29 01:39:57;;;;;;;;;;;19.80;63.10;;;;;;5051109;28;1095;-73
2021/05/29 01:42:22;;;;;;;;;;;19.80;63.20;;;;;;5051451;28;1910;-73
2021/05/29 01:44:48;;;;;;;;;;;19.80;63.20;;;;;;5050727;28;1166;-73
2021/05/29 01:47:13;;;;;;;;;;;19.80;63.20;;;;;;5051217;28;1197;-73
2021/05/29 01:49:39;;;;;;;;;;;19.80;63.20;;;;;;5051896;28;1035;-71
2021/05/29 01:52:04;;;;;;;;;;;19.80;63.20;;;;;;5051238;28;1079;-72
2021/05/29 01:54:30;;;;;;;;;;;19.70;63.10;;;;;;5051664;28;1055;-73
2021/05/29 01:56:57;;;;;;;;;;;19.80;63.20;;;;;;5051899;28;1197;-73
2021/05/29 01:59:22;;;;;;;;;;;19.80;63.20;;;;;;5050864;28;1146;-73
2021/05/29 02:01:48;;;;;;;;;;;19.80;63.20;;;;;;5052276;28;1909;-73
2021/05/29 02:04:13;;;;;;;;;;;19.80;63.20;;;;;;5051826;28;1059;-73
2021/05/29 02:06:38;;;;;;;;;;;19.80;63.20;;;;;;5051491;28;1225;-73
2021/05/29 02:09:04;;;;;;;;;;;19.80;63.20;;;;;;5051756;28;1071;-72
2021/05/29 02:11:29;;;;;;;;;;;19.80;63.20;;;;;;5052441;28;1055;-72
2021/05/29 02:13:55;;;;;;;;;;;19.70;63.10;;;;;;5050896;28;1104;-73
2021/05/29 02:16:20;;;;;;;;;;;19.80;63.30;;;;;;5051158;28;1321;-73
2021/05/29 02:18:46;;;;;;;;;;;19.80;63.20;;;;;;5046430;28;1130;-72
2021/05/29 02:21:13;;;;;;;;;;;19.80;63.20;;;;;;5045734;28;2025;-72
2021/05/29 02:23:39;;;;;;;;;;;19.80;63.20;;;;;;5051159;28;1047;-74
2021/05/29 02:26:09;;;;;;;;;;;19.70;63.20;;;;;;5046782;28;1279;-73
2021/05/29 02:28:38;;;;;;;;;;;19.70;63.20;;;;;;5049991;28;1223;-73
2021/05/29 02:31:04;;;;;;;;;;;19.70;63.20;;;;;;5050057;28;1369;-73
2021/05/29 02:33:29;;;;;;;;;;;19.70;63.20;;;;;;5051130;28;1196;-74
2021/05/29 02:35:55;;;;;;;;;;;19.70;63.20;;;;;;5051150;28;1337;-73
2021/05/29 02:38:20;;;;;;;;;;;19.70;63.20;;;;;;5049795;28;1203;-71
2021/05/29 02:40:46;;;;;;;;;;;19.70;63.20;;;;;;5065869;28;1234;-73
2021/05/29 02:43:11;;;;;;;;;;;19.70;63.30;;;;;;5054979;28;1975;-73
2021/05/29 02:45:39;;;;;;;;;;;19.70;63.20;;;;;;5050103;28;1284;-74
2021/05/29 02:48:04;;;;;;;;;;;19.70;63.20;;;;;;5054148;28;1314;-73
2021/05/29 02:50:30;;;;;;;;;;;19.70;63.20;;;;;;5049898;28;1171;-73
2021/05/29 02:52:55;;;;;;;;;;;19.70;63.30;;;;;;5049883;28;1204;-73
2021/05/29 02:55:22;;;;;;;;;;;19.70;63.30;;;;;;5050907;28;1305;-73
2021/05/29 02:57:49;;;;;;;;;;;19.70;63.30;;;;;;5054491;28;1159;-73
2021/05/29 03:00:14;;;;;;;;;;;19.70;63.30;;;;;;5054309;28;1056;-73
2021/05/29 03:02:40;;;;;;;;;;;19.70;63.30;;;;;;5055487;28;1952;-72
2021/05/29 03:05:06;;;;;;;;;;;19.70;63.30;;;;;;5053992;28;1157;-73
2021/05/29 03:07:31;;;;;;;;;;;19.70;63.30;;;;;;5053798;28;1064;-72
2021/05/29 03:09:57;;;;;;;;;;;19.70;63.30;;;;;;5055652;28;1144;-72
2021/05/29 03:12:22;;;;;;;;;;;19.70;63.30;;;;;;5054031;28;1116;-72
2021/05/29 03:14:47;;;;;;;;;;;19.70;63.30;;;;;;5054595;28;1248;-73
2021/05/29 03:17:13;;;;;;;;;;;19.70;63.30;;;;;;5049333;28;1292;-72
2021/05/29 03:19:38;;;;;;;;;;;19.70;63.40;;;;;;5054979;28;1083;-72
2021/05/29 03:22:04;;;;;;;;;;;19.70;63.30;;;;;;5049474;28;1947;-72
2021/05/29 03:24:29;;;;;;;;;;;19.70;63.30;;;;;;5055571;28;1055;-73
2021/05/29 03:26:57;;;;;;;;;;;19.70;63.40;;;;;;5055016;28;1276;-72
2021/05/29 03:29:23;;;;;;;;;;;19.70;63.40;;;;;;5054805;28;1063;-72
2021/05/29 03:31:48;;;;;;;;;;;19.70;63.40;;;;;;5054394;28;1090;-72
2021/05/29 03:34:14;;;;;;;;;;;19.70;63.40;;;;;;5054700;28;1078;-73
2021/05/29 03:36:39;;;;;;;;;;;19.70;63.40;;;;;;5053913;28;1259;-72
2021/05/29 03:39:05;;;;;;;;;;;19.70;63.30;;;;;;5055141;28;1062;-73
2021/05/29 03:41:30;;;;;;;;;;;19.70;63.10;;;;;;5054798;28;1902;-72
2021/05/29 03:43:56;;;;;;;;;;;19.70;63.10;;;;;;5053050;28;1083;-72
2021/05/29 03:46:21;;;;;;;;;;;19.80;63.10;;;;;;5053984;28;1369;-72
2021/05/29 03:48:47;;;;;;;;;;;19.80;63.00;;;;;;5054375;28;1133;-72
2021/05/29 03:51:12;;;;;;;;;;;19.90;62.90;;;;;;5054332;28;1115;-73
2021/05/29 03:53:38;;;;;;;;;;;19.90;62.70;;;;;;5053284;28;1162;-73
2021/05/29 03:56:03;;;;;;;;;;;20.10;62.50;;;;;;5052850;28;1353;-73
2021/05/29 03:58:30;;;;;;;;;;;20.10;62.30;;;;;;5052972;28;1159;-73
2021/05/29 04:00:56;;;;;;;;;;;20.20;62.00;;;;;;5054326;28;1117;-72
2021/05/29 04:03:21;;;;;;;;;;;20.30;61.80;;;;;;5054320;28;1898;-72
2021/05/29 04:05:47;;;;;;;;;;;20.40;61.50;;;;;;5053578;28;1162;-72
2021/05/29 04:08:12;;;;;;;;;;;20.50;61.30;;;;;;5053859;28;1067;-72
2021/05/29 04:10:38;;;;;;;;;;;20.50;61.00;;;;;;5054384;28;1071;-72
2021/05/29 04:13:03;;;;;;;;;;;20.60;60.80;;;;;;5054260;28;1129;-73
2021/05/29 04:15:29;;;;;;;;;;;20.60;60.60;;;;;;5053451;28;1440;-72
2021/05/29 04:17:54;;;;;;;;;;;20.70;60.50;;;;;;5047458;28;1098;-72
2021/05/29 04:20:20;;;;;;;;;;;20.70;60.30;;;;;;5047182;28;1146;-73
2021/05/29 04:22:46;;;;;;;;;;;20.80;60.20;;;;;;5053907;28;1973;-73
2021/05/29 04:25:13;;;;;;;;;;;20.80;60.00;;;;;;5052254;28;1305;-72
2021/05/29 04:27:38;;;;;;;;;;;20.90;59.90;;;;;;5052468;28;1135;-72
2021/05/29 04:30:05;;;;;;;;;;;20.90;59.80;;;;;;5068017;22;1773;-67
2021/05/29 04:32:30;;;;;;;;;;;21.00;59.80;;;;;;5040655;28;949;-69
2021/05/29 04:34:55;;;;;;;;;;;21.00;59.70;;;;;;5052892;28;1069;-68
2021/05/29 04:37:21;;;;;;;;;;;21.00;59.60;;;;;;5068843;28;1167;-68
2021/05/29 04:39:46;;;;;;;;;;;21.10;59.60;;;;;;5061851;28;1355;-68
2021/05/29 04:42:12;;;;;;;;;;;21.10;59.50;;;;;;5073388;28;1952;-68
2021/05/29 04:44:37;;;;;;;;;;;21.10;59.50;;;;;;5054962;28;1084;-66
2021/05/29 04:47:03;;;;;;;;;;;21.20;59.40;;;;;;5054939;28;949;-68
2021/05/29 04:49:29;;;;;;;;;;;21.20;59.40;;;;;;5073233;28;1408;-68
2021/05/29 04:51:54;;;;;;;;;;;21.20;59.30;;;;;;5073553;28;1152;-69
2021/05/29 04:54:20;;;;;;;;;;;21.20;59.90;;;;;;5055779;28;1096;-68
2021/05/29 04:56:45;;;;;;;;;;;21.20;59.20;;;;;;5055155;28;1282;-68
2021/05/29 04:59:11;;;;;;;;;;;21.20;59.20;;;;;;5073643;28;1264;-67
2021/05/29 05:01:36;;;;;;;;;;;21.20;59.20;;;;;;5054901;28;1894;-67
2021/05/29 05:04:02;;;;;;;;;;;21.30;59.20;;;;;;5073033;28;1131;-69
2021/05/29 05:06:27;;;;;;;;;;;21.30;59.20;;;;;;5072626;28;1127;-68
2021/05/29 05:08:53;;;;;;;;;;;21.30;59.10;;;;;;5054691;28;1203;-68
2021/05/29 05:11:18;;;;;;;;;;;21.30;59.10;;;;;;5073077;28;1120;-68
2021/05/29 05:13:44;;;;;;;;;;;21.30;59.00;;;;;;5054944;28;1068;-68
2021/05/29 05:16:09;;;;;;;;;;;21.30;59.00;;;;;;5071817;28;1174;-68
2021/05/29 05:18:35;;;;;;;;;;;21.40;59.10;;;;;;5054021;28;1143;-67
2021/05/29 05:21:00;;;;;;;;;;;21.40;59.10;;;;;;5067539;28;1299;-68
2021/05/29 05:23:25;;;;;;;;;;;21.40;59.00;;;;;;5072790;28;1956;-69
2021/05/29 05:25:51;;;;;;;;;;;21.40;59.00;;;;;;5071740;28;1214;-67
2021/05/29 05:28:17;;;;;;;;;;;21.40;59.00;;;;;;5054752;28;1104;-69
2021/05/29 05:30:42;;;;;;;;;;;21.40;59.00;;;;;;5072329;28;1207;-68
2021/05/29 05:33:08;;;;;;;;;;;21.40;59.00;;;;;;5054690;28;1128;-68
2021/05/29 05:35:34;;;;;;;;;;;21.40;59.00;;;;;;5072264;28;1147;-68
2021/05/29 05:37:59;;;;;;;;;;;21.40;59.00;;;;;;5072682;28;1131;-68
2021/05/29 05:40:25;;;;;;;;;;;21.40;59.00;;;;;;5072413;28;1355;-68
2021/05/29 05:42:50;;;;;;;;;;;21.40;59.10;;;;;;5072428;28;1973;-68
2021/05/29 05:45:16;;;;;;;;;;;21.40;59.10;;;;;;5071533;28;1099;-68
2021/05/29 05:47:41;;;;;;;;;;;21.40;59.10;;;;;;5072057;28;1064;-69
2021/05/29 05:50:08;;;;;;;;;;;21.40;59.10;;;;;;5055007;28;1289;-68
2021/05/29 05:52:34;;;;;;;;;;;21.40;59.20;;;;;;5072220;28;1047;-67
2021/05/29 05:54:59;;;;;;;;;;;21.40;59.20;;;;;;5072194;28;1119;-69
2021/05/29 05:57:25;;;;;;;;;;;21.30;59.20;;;;;;5037787;28;1097;-68
2021/05/29 05:59:50;;;;;;;;;;;21.30;59.20;;;;;;5054138;28;1357;-68
2021/05/29 06:02:16;;;;;;;;;;;21.30;59.30;;;;;;5054340;28;1963;-69
2021/05/29 06:04:41;;;;;;;;;;;21.30;59.30;;;;;;5053568;28;1272;-69
2021/05/29 06:07:07;;;;;;;;;;;21.30;59.40;;;;;;5052465;28;1179;-68
2021/05/29 06:09:32;;;;;;;;;;;21.30;59.40;;;;;;5071736;28;1389;-68
2021/05/29 06:11:58;;;;;;;;;;;21.30;59.40;;;;;;5071258;28;1123;-68
2021/05/29 06:19:52;;;;;;;;;;;21.20;59.50;;;;;;5070253;28;1855;-68
2021/05/29 06:22:17;;;;;;;;;;;21.20;59.50;;;;;;5040166;28;2114;-65
2021/05/29 06:24:42;;;;;;;;;;;21.20;59.60;;;;;;5073006;28;2127;-65
2021/05/29 06:27:08;;;;;;;;;;;21.20;59.70;;;;;;5080465;28;1139;-65
2021/05/29 06:29:33;;;;;;;;;;;21.20;59.70;;;;;;5080913;28;1298;-65
2021/05/29 06:31:59;;;;;;;;;;;21.20;59.80;;;;;;5056869;28;1108;-66
2021/05/29 06:34:24;;;;;;;;;;;21.20;59.80;;;;;;5056688;28;1131;-67
2021/05/29 06:36:51;;;;;;;;;;;21.10;59.70;;;;;;5056577;28;1342;-67
2021/05/29 06:39:16;;;;;;;;;;;21.10;59.80;;;;;;5074332;28;1302;-68
2021/05/29 06:41:41;;;;;;;;;;;21.10;59.80;;;;;;5056889;28;1906;-70
2021/05/29 06:44:07;;;;;;;;;;;21.10;59.90;;;;;;5074541;28;1067;-68
2021/05/29 06:46:33;;;;;;;;;;;21.10;59.90;;;;;;5055842;28;1120;-69
2021/05/29 06:49:00;;;;;;;;;;;21.10;60.00;;;;;;5074780;28;1368;-68
2021/05/29 06:54:56;;;;;;;;;;;21.00;60.00;;;;;;5066371;28;1692;-68
2021/05/29 06:59:43;;;;;;;;;;;21.00;60.10;;;;;;5073146;28;1302;-66
2021/05/29 07:02:08;;;;;;;;;;;21.00;60.10;;;;;;5073983;28;1894;-68
2021/05/29 07:04:34;;;;;;;;;;;21.00;60.10;;;;;;5073783;28;1120;-68
2021/05/29 07:06:59;;;;;;;;;;;21.00;60.20;;;;;;5074946;28;1083;-68
2021/05/29 07:09:25;;;;;;;;;;;21.00;60.20;;;;;;5075312;28;1360;-68
2021/05/29 07:11:50;;;;;;;;;;;20.90;60.20;;;;;;5057133;28;1174;-68
2021/05/29 07:14:16;;;;;;;;;;;21.00;60.30;;;;;;5075100;28;1083;-68
2021/05/29 07:16:42;;;;;;;;;;;20.90;61.10;;;;;;5072039;28;1064;-67
2021/05/29 07:19:08;;;;;;;;;;;20.90;60.30;;;;;;5072078;28;1287;-68
2021/05/29 07:21:35;;;;;;;;;;;20.90;60.40;;;;;;5057071;28;1909;-67
2021/05/29 07:24:01;;;;;;;;;;;20.90;60.40;;;;;;5074897;28;1240;-68
2021/05/29 07:26:26;;;;;;;;;;;20.90;60.40;;;;;;5074411;28;1061;-68
2021/05/29 07:28:52;;;;;;;;;;;20.90;60.40;;;;;;5074637;28;1297;-68
2021/05/29 07:31:18;;;;;;;;;;;20.90;60.50;;;;;;5074939;28;1135;-68
2021/05/29 07:33:43;;;;;;;;;;;20.90;60.50;;;;;;5074553;28;1127;-68
2021/05/29 07:36:09;;;;;;;;;;;20.90;60.50;;;;;;5073724;28;1068;-68
2021/05/29 07:38:34;;;;;;;;;;;20.90;60.60;;;;;;5074606;28;1083;-67
2021/05/29 07:41:00;;;;;;;;;;;20.90;60.70;;;;;;5074738;28;1212;-68
2021/05/29 07:43:26;;;;;;;;;;;20.80;60.60;;;;;;5055283;28;1963;-68
2021/05/29 07:45:51;;;;;;;;;;;20.80;60.70;;;;;;5074422;28;1029;-68
2021/05/29 07:48:17;;;;;;;;;;;20.80;60.70;;;;;;5074258;28;1075;-68
2021/05/29 07:50:58;;;;;;;;;;;20.80;60.70;;;;;;5074772;28;1338;-68
2021/05/29 07:53:24;;;;;;;;;;;20.80;60.70;;;;;;5074638;28;1104;-68
2021/05/29 07:55:49;;;;;;;;;;;20.80;60.80;;;;;;5073714;28;1146;-68
2021/05/29 07:58:15;;;;;;;;;;;20.80;60.80;;;;;;5074402;28;1103;-68
2021/05/29 08:00:43;;;;;;;;;;;20.80;60.80;;;;;;5074036;28;1232;-68
2021/05/29 08:03:08;;;;;;;;;;;20.80;61.70;;;;;;5074123;28;1959;-68
2021/05/29 08:05:34;;;;;;;;;;;20.70;60.90;;;;;;5073761;28;1056;-68
2021/05/29 08:07:59;;;;;;;;;;;20.70;60.90;;;;;;5056165;28;1361;-67
2021/05/29 08:10:25;;;;;;;;;;;20.70;60.90;;;;;;5074048;28;1281;-68
2021/05/29 08:12:50;;;;;;;;;;;20.70;61.00;;;;;;5073891;28;1114;-68
2021/05/29 08:15:16;;;;;;;;;;;20.70;61.00;;;;;;5073227;28;1170;-67
2021/05/29 08:17:41;;;;;;;;;;;20.70;61.10;;;;;;5068644;28;1092;-68
2021/05/29 08:20:07;;;;;;;;;;;20.70;61.00;;;;;;5069988;28;1278;-68
2021/05/29 08:22:32;;;;;;;;;;;20.70;61.00;;;;;;5072151;28;1965;-68
2021/05/29 08:25:00;;;;;;;;;;;20.60;61.00;;;;;;5055079;28;1073;-68
2021/05/29 08:27:25;;;;;;;;;;;20.70;61.10;;;;;;5073788;28;1134;-68
2021/05/29 08:29:51;;;;;;;;;;;20.70;61.10;;;;;;5073375;28;1253;-67
2021/05/29 08:32:16;;;;;;;;;;;20.60;61.10;;;;;;5073715;28;1127;-66
2021/05/29 08:34:41;;;;;;;;;;;20.70;61.10;;;;;;5072884;28;1328;-68
2021/05/29 08:37:07;;;;;;;;;;;20.70;61.10;;;;;;5073792;28;1107;-67
2021/05/29 08:39:32;;;;;;;;;;;20.70;61.20;;;;;;5073384;28;1266;-67
2021/05/29 08:42:00;;;;;;;;;;;20.70;61.20;;;;;;5061018;28;1906;-66
2021/05/29 08:44:25;;;;;;;;;;;20.70;61.20;;;;;;5055070;28;1107;-66
2021/05/29 08:46:51;;;;;;;;;;;20.70;61.20;;;;;;5069466;28;1949;-67
2021/05/29 08:49:16;;;;;;;;;;;20.60;61.20;;;;;;5080128;28;1249;-68
2021/05/29 08:51:41;;;;;;;;;;;20.60;61.20;;;;;;5080492;28;1102;-68
2021/05/29 08:54:07;;;;;;;;;;;20.60;61.20;;;;;;5071959;28;1316;-67
2021/05/29 08:56:33;;;;;;;;;;;20.60;61.20;;;;;;5071362;28;1154;-68
2021/05/29 08:58:58;;;;;;;;;;;20.60;61.30;;;;;;5053662;28;1273;-68
2021/05/29 09:01:24;;;;;;;;;;;20.60;61.30;;;;;;5072268;28;1906;-68
2021/05/29 09:03:50;;;;;;;;;;;20.60;61.30;;;;;;5071971;28;1123;-68
2021/05/29 09:06:35;;;;;;;;;;;20.60;61.30;;;;;;5070822;28;1107;-68
2021/05/29 09:09:02;;;;;;;;;;;20.60;61.30;;;;;;5071811;28;1366;-64
2021/05/29 09:11:38;;;;;;;;;;;20.60;61.40;;;;;;5071227;28;1740;-66
2021/05/29 09:14:29;;;;;;;;;;;20.60;61.40;;;;;;5072368;28;1124;-64
2021/05/29 09:17:14;;;;;;;;;;;20.60;61.40;;;;;;5068516;28;1083;-67
2021/05/29 09:19:59;;;;;;;;;;;20.60;61.40;;;;;;5060376;28;1293;-67
2021/05/29 09:22:30;;;;;;;;;;;20.60;61.50;;;;;;5069908;28;1943;-67
2021/05/29 09:24:57;;;;;;;;;;;20.60;61.50;;;;;;5071868;28;1123;-67
2021/05/29 09:27:22;;;;;;;;;;;20.50;61.40;;;;;;5072888;28;1147;-66
2021/05/29 09:29:47;;;;;;;;;;;20.50;61.40;;;;;;5072380;28;1350;-64
2021/05/29 09:32:13;;;;;;;;;;;20.50;61.50;;;;;;5054138;28;1151;-64
2021/05/29 09:34:43;;;;;;;;;;;20.50;61.50;;;;;;5071946;28;1126;-64
2021/05/29 09:37:10;;;;;;;;;;;20.50;61.50;;;;;;5072706;28;1155;-64
2021/05/29 09:39:37;;;;;;;;;;;20.50;61.50;;;;;;5054672;28;1365;-64
2021/05/29 09:42:03;;;;;;;;;;;20.50;61.50;;;;;;5054578;28;1914;-64
2021/05/29 09:44:28;;;;;;;;;;;20.50;61.60;;;;;;5053901;28;1627;-69
2021/05/29 09:46:54;;;;;;;;;;;20.50;61.60;;;;;;5071605;28;1084;-64
2021/05/29 09:49:20;;;;;;;;;;;20.50;61.60;;;;;;5054552;28;1371;-64
2021/05/29 09:51:45;;;;;;;;;;;20.50;61.60;;;;;;5072472;28;1182;-66
2021/05/29 09:54:11;;;;;;;;;;;20.50;61.60;;;;;;5071982;28;1048;-64
2021/05/29 09:56:40;;;;;;;;;;;20.50;61.70;;;;;;5053785;28;1103;-64
2021/05/29 09:59:09;;;;;;;;;;;20.50;61.70;;;;;;5054804;28;1274;-65
2021/05/29 10:01:35;;;;;;;;;;;20.50;61.70;;;;;;5054239;28;1993;-64
2021/05/29 10:04:01;;;;;;;;;;;20.50;61.70;;;;;;5072774;28;1068;-64
2021/05/29 10:06:26;;;;;;;;;;;20.40;61.70;;;;;;5071448;28;1139;-64
2021/05/29 10:08:52;;;;;;;;;;;20.50;61.80;;;;;;5071998;28;1411;-66
2021/05/29 10:11:18;;;;;;;;;;;20.50;61.80;;;;;;5072343;28;1182;-68
2021/05/29 10:13:43;;;;;;;;;;;20.40;61.80;;;;;;5072092;28;1072;-68
2021/05/29 10:16:08;;;;;;;;;;;20.40;61.80;;;;;;5053157;28;1150;-68
2021/05/29 10:18:34;;;;;;;;;;;20.50;61.90;;;;;;5054044;28;1120;-68
2021/05/29 10:20:59;;;;;;;;;;;20.40;61.90;;;;;;5050828;28;1943;-68
2021/05/29 10:23:25;;;;;;;;;;;20.40;61.90;;;;;;5059555;28;2220;-68
2021/05/29 10:25:50;;;;;;;;;;;20.50;61.90;;;;;;5080560;28;1683;-68
2021/05/29 10:28:16;;;;;;;;;;;20.40;61.90;;;;;;5078557;28;1224;-68
2021/05/29 10:30:41;;;;;;;;;;;20.40;62.00;;;;;;5058159;22;3700;-72
2021/05/29 10:33:11;;;;;;;;;;;20.40;62.00;;;;;;5046379;28;1718;-72
2021/05/29 10:35:39;;;;;;;;;;;20.40;62.00;;;;;;5043839;28;1164;-72
2021/05/29 10:38:06;;;;;;;;;;;20.40;62.00;;;;;;5041881;28;1566;-72
2021/05/29 10:40:35;;;;;;;;;;;20.40;62.00;;;;;;5044470;28;1361;-72
2021/05/29 10:43:07;;;;;;;;;;;20.40;62.00;;;;;;5030409;28;1902;-72
2021/05/29 10:45:33;;;;;;;;;;;20.40;62.00;;;;;;5031357;28;1578;-72
2021/05/29 10:47:59;;;;;;;;;;;20.40;62.00;;;;;;5025485;28;2243;-72
2021/05/29 10:50:43;;;;;;;;;;;20.40;62.00;;;;;;5030905;28;1292;-72
2021/05/29 10:53:08;;;;;;;;;;;20.40;62.00;;;;;;5030037;28;1086;-72
2021/05/29 10:55:34;;;;;;;;;;;20.40;62.00;;;;;;5030806;28;1075;-72
2021/05/29 10:58:03;;;;;;;;;;;20.40;62.00;;;;;;5031705;28;1091;-72
2021/05/29 11:00:34;;;;;;;;;;;20.40;62.10;;;;;;5032132;28;1719;-72
2021/05/29 11:03:22;;;;;;;;;;;20.40;62.10;;;;;;5031406;28;1902;-72
2021/05/29 11:05:52;;;;;;;;;;;20.40;62.00;;;;;;5022909;28;1281;-71
2021/05/29 11:08:36;;;;;;;;;;;20.40;62.00;;;;;;5030905;28;1199;-71
2021/05/29 11:11:01;;;;;;;;;;;20.40;62.00;;;;;;5031707;28;1271;-71
2021/05/29 11:13:46;;;;;;;;;;;20.40;62.10;;;;;;5030294;28;1332;-71
2021/05/29 11:16:11;;;;;;;;;;;20.40;62.00;;;;;;5031466;28;1225;-71
2021/05/29 11:18:56;;;;;;;;;;;20.40;62.80;;;;;;5032759;28;1195;-71
2021/05/29 11:21:22;;;;;;;;;;;20.40;62.10;;;;;;5035055;28;1257;-71
2021/05/29 11:23:47;;;;;;;;;;;20.40;62.10;;;;;;5034944;28;1973;-71
2021/05/29 11:26:13;;;;;;;;;;;20.40;62.10;;;;;;5033539;28;1092;-71
2021/05/29 11:28:38;;;;;;;;;;;20.40;62.10;;;;;;5035152;28;1043;-72
2021/05/29 11:31:04;;;;;;;;;;;20.40;62.10;;;;;;5033950;28;1195;-71
2021/05/29 11:33:29;;;;;;;;;;;20.40;62.10;;;;;;5034727;28;1076;-71
2021/05/29 11:35:55;;;;;;;;;;;20.40;62.10;;;;;;5034474;28;1072;-71
2021/05/29 11:38:21;;;;;;;;;;;20.40;62.10;;;;;;5034726;28;1075;-71
2021/05/29 11:40:59;;;;;;;;;;;20.40;62.10;;;;;;5034394;28;1207;-71
2021/05/29 11:43:44;;;;;;;;;;;20.40;62.10;;;;;;5033585;28;1969;-72
2021/05/29 11:46:10;;;;;;;;;;;20.40;62.10;;;;;;5034497;28;1051;-71
2021/05/29 11:48:36;;;;;;;;;;;20.40;62.10;;;;;;5034745;28;1080;-72
2021/05/29 11:51:11;;;;;;;;;;;20.40;62.10;;;;;;5034184;28;1282;-72
2021/05/29 11:53:45;;;;;;;;;;;20.40;62.10;;;;;;5033411;28;1081;-71
2021/05/29 11:56:11;;;;;;;;;;;20.40;62.10;;;;;;5033855;28;1071;-72
2021/05/29 11:58:54;;;;;;;;;;;20.40;61.90;;;;;;5033330;28;1155;-71
2021/05/29 12:01:21;;;;;;;;;;;20.40;62.00;;;;;;5033392;28;1271;-71
2021/05/29 12:03:50;;;;;;;;;;;20.40;61.80;;;;;;5031220;28;2219;-73
2021/05/29 12:06:32;;;;;;;;;;;20.50;61.80;;;;;;5035794;28;1134;-73
2021/05/29 12:08:57;;;;;;;;;;;20.50;61.70;;;;;;5037552;28;1093;-72
2021/05/29 12:11:27;;;;;;;;;;;20.60;61.60;;;;;;5032850;28;1201;-72
2021/05/29 12:14:03;;;;;;;;;;;20.60;62.10;;;;;;5032928;28;1174;-72
2021/05/29 12:16:29;;;;;;;;;;;20.70;61.30;;;;;;5033562;28;1063;-72
2021/05/29 12:18:54;;;;;;;;;;;20.70;61.00;;;;;;5029420;28;1735;-71
2021/05/29 12:21:20;;;;;;;;;;;20.80;61.10;;;;;;5044778;28;1269;-72
2021/05/29 12:23:49;;;;;;;;;;;20.80;60.90;;;;;;5041020;28;1910;-72
2021/05/29 12:26:15;;;;;;;;;;;20.80;60.80;;;;;;5042516;28;1230;-72
2021/05/29 12:28:40;;;;;;;;;;;20.80;60.70;;;;;;5043884;28;1110;-72
2021/05/29 12:31:06;;;;;;;;;;;20.90;60.70;;;;;;5042001;28;1329;-71
2021/05/29 12:33:31;;;;;;;;;;;20.90;60.60;;;;;;5033629;28;1095;-71
2021/05/29 12:36:04;;;;;;;;;;;20.90;61.40;;;;;;5033689;28;1068;-71
2021/05/29 12:38:29;;;;;;;;;;;20.90;60.50;;;;;;5033410;28;1166;-72
2021/05/29 12:40:55;;;;;;;;;;;20.90;60.50;;;;;;5033900;28;1188;-71
2021/05/29 12:43:21;;;;;;;;;;;20.90;60.50;;;;;;5033933;28;2284;-71
2021/05/29 12:45:46;;;;;;;;;;;20.90;60.60;;;;;;5033012;28;1051;-71
2021/05/29 12:48:12;;;;;;;;;;;20.90;60.60;;;;;;5033315;28;1165;-72
2021/05/29 12:50:38;;;;;;;;;;;20.80;60.60;;;;;;5032367;28;1148;-72
2021/05/29 12:53:08;;;;;;;;;;;20.80;60.60;;;;;;5015288;28;1160;-72
2021/05/29 12:55:33;;;;;;;;;;;20.90;60.60;;;;;;5033062;28;1048;-72
2021/05/29 12:57:58;;;;;;;;;;;20.90;60.70;;;;;;5033488;28;1051;-72
2021/05/29 13:00:39;;;;;;;;;;;20.80;60.60;;;;;;5032053;28;1300;-72
2021/05/29 13:11:09;;;;;;;;;;;20.80;60.80;;;;;;5032683;28;1233;-71
2021/05/29 13:13:53;;;;;;;;;;;20.80;60.80;;;;;;5015416;28;1164;-72
2021/05/29 13:16:18;;;;;;;;;;;20.80;60.80;;;;;;5019826;28;1083;-71
2021/05/29 13:18:58;;;;;;;;;;;20.80;60.90;;;;;;5032583;28;1173;-72
2021/05/29 13:21:24;;;;;;;;;;;20.80;60.90;;;;;;5032587;28;1225;-71
2021/05/29 13:23:49;;;;;;;;;;;20.80;60.90;;;;;;5033012;28;1898;-71
2021/05/29 13:26:15;;;;;;;;;;;20.70;60.90;;;;;;5031914;28;1067;-72
2021/05/29 13:28:40;;;;;;;;;;;20.70;61.00;;;;;;5032916;28;1060;-72
2021/05/29 13:31:06;;;;;;;;;;;20.70;61.00;;;;;;5032586;28;1207;-72
2021/05/29 13:33:32;;;;;;;;;;;20.70;61.00;;;;;;5032789;28;1079;-71
2021/05/29 13:35:57;;;;;;;;;;;20.70;61.00;;;;;;5031933;28;968;-71
2021/05/29 13:38:23;;;;;;;;;;;20.70;61.00;;;;;;5032216;28;1087;-71
2021/05/29 13:40:48;;;;;;;;;;;20.70;61.10;;;;;;5031869;28;1292;-71
2021/05/29 13:43:13;;;;;;;;;;;20.70;61.10;;;;;;5032461;28;1906;-71
2021/05/29 13:45:39;;;;;;;;;;;20.70;61.20;;;;;;5032533;28;949;-72
2021/05/29 13:48:04;;;;;;;;;;;20.60;61.10;;;;;;5032247;28;1036;-71
2021/05/29 13:50:30;;;;;;;;;;;20.70;61.30;;;;;;5032065;28;1234;-71
2021/05/29 13:52:56;;;;;;;;;;;20.70;61.30;;;;;;5032321;28;1138;-71
2021/05/29 13:55:21;;;;;;;;;;;20.60;61.30;;;;;;5031936;28;1063;-72
2021/05/29 13:57:46;;;;;;;;;;;20.60;61.30;;;;;;5032266;28;1099;-72
2021/05/29 14:00:13;;;;;;;;;;;20.70;61.40;;;;;;5031151;28;1333;-71
2021/05/29 14:02:39;;;;;;;;;;;20.60;61.30;;;;;;5032022;28;1899;-71
2021/05/29 14:05:05;;;;;;;;;;;20.60;61.40;;;;;;5031540;28;1064;-72
2021/05/29 14:07:31;;;;;;;;;;;20.60;61.40;;;;;;5031810;28;1134;-72
2021/05/29 14:09:56;;;;;;;;;;;20.60;61.50;;;;;;5032313;28;1288;-73
2021/05/29 14:12:22;;;;;;;;;;;20.60;61.50;;;;;;5032186;28;1083;-73
2021/05/29 14:14:47;;;;;;;;;;;20.60;61.60;;;;;;5023693;28;1147;-73
2021/05/29 14:17:12;;;;;;;;;;;20.60;61.60;;;;;;5025543;28;1108;-73
2021/05/29 14:19:38;;;;;;;;;;;20.60;61.60;;;;;;5032284;28;1322;-73
2021/05/29 14:22:03;;;;;;;;;;;20.60;61.70;;;;;;5032287;28;1961;-73
2021/05/29 14:24:29;;;;;;;;;;;20.60;61.70;;;;;;5030986;28;1088;-73
2021/05/29 14:26:54;;;;;;;;;;;20.50;61.70;;;;;;5033433;28;1751;-74
2021/05/29 14:29:20;;;;;;;;;;;20.50;61.70;;;;;;5040214;28;1154;-73
2021/05/29 14:31:45;;;;;;;;;;;20.50;61.70;;;;;;5036157;28;1879;-74
2021/05/29 14:34:11;;;;;;;;;;;20.50;61.80;;;;;;5043442;28;1241;-74
2021/05/29 14:36:36;;;;;;;;;;;20.50;61.80;;;;;;5037236;28;1102;-73
2021/05/29 14:39:02;;;;;;;;;;;20.50;61.80;;;;;;5032259;28;1130;-74
2021/05/29 14:41:28;;;;;;;;;;;20.50;61.80;;;;;;5032000;28;1202;-74
2021/05/29 14:43:53;;;;;;;;;;;20.50;61.90;;;;;;5030818;28;1902;-74
2021/05/29 14:46:19;;;;;;;;;;;20.50;61.90;;;;;;5031037;28;1127;-74